Terminal Aerodrome Forecast
Issued by NWS

Home | Current Version | Previous Version | Text Only | Print | Product List | Glossary On
Versions: 1 2 3 4 5 6 7 8 9 10 11 12 13 14 15 16 17 18 19
000
FTUS46 KMTR 171500 AAA
TAFMRY
TAF AMD
KMRY 171504Z 1715/1812 10003KT P6SM OVC004
     FM171730 29008KT P6SM SKC
     FM180300 24004KT P6SM SCT009
     FM180600 24003KT P6SM OVC007 PROB30 1808/1812 P6SM -SHRA
      BKN025=

USA.gov is the U.S. government's official web portal to all federal, state and local government web resources and services.